Time;durP1;ratioP1;P1;durP2;ratioP2;P2;SDS_P1;SDS_P2;PMS_P1;PMS_P2;Temp;Humidity;BMP_temperature;BMP_pressure;BME280_temperature;BME280_humidity;BME280_pressure;Samples;Min_cycle;Max_cycle;Signal;HPM_P1;HPM_P2
2023/05/03 00:02:15;;;;;;;;;;;;;;;9.38;73.23;98824.81;5055437;28;20007;-66
2023/05/03 00:05:03;;;;;;;;;;;;;;;9.29;73.64;98821.88;5072630;28;19924;-68
2023/05/03 00:07:55;;;;;;;;;;;;;;;9.25;73.73;98826.22;5053581;28;19924;-68
2023/05/03 00:10:43;;;;;;;;;;;;;;;9.09;74.04;98811.94;5067782;28;19920;-69
2023/05/03 00:13:32;;;;;;;;;;;;;;;9.16;74.27;98830.59;5044805;28;19921;-68
2023/05/03 00:16:20;;;;;;;;;;;;;;;9.12;74.60;98822.22;5043866;28;19935;-65
2023/05/03 00:19:08;;;;;;;;;;;;;;;9.12;74.53;98824.13;5088481;28;20427;-68
2023/05/03 00:22:05;;;;;;;;;;;;;;;9.13;74.30;98826.56;5086846;28;19920;-68
2023/05/03 00:24:55;;;;;;;;;;;;;;;9.17;74.42;98821.41;5084043;28;20324;-66
2023/05/03 00:27:43;;;;;;;;;;;;;;;9.13;74.28;98814.91;5080588;28;20398;-68
2023/05/03 00:30:34;;;;;;;;;;;;;;;9.01;74.54;98814.44;5104323;27;19930;-66
2023/05/03 00:33:22;;;;;;;;;;;;;;;8.97;75.06;98818.78;5090971;28;19932;-68
2023/05/03 00:36:11;;;;;;;;;;;;;;;9.00;74.95;98818.22;5105685;27;20021;-66
2023/05/03 00:38:59;;;;;;;;;;;;;;;8.98;74.56;98814.97;5088612;28;19924;-68
2023/05/03 00:41:48;;;;;;;;;;;;;;;8.82;74.72;98820.47;5095262;28;19931;-67
2023/05/03 00:44:37;;;;;;;;;;;;;;;8.77;75.35;98809.66;5082453;28;20552;-67
2023/05/03 00:47:25;;;;;;;;;;;;;;;8.79;75.51;98804.78;5081595;28;19920;-64
2023/05/03 00:50:15;;;;;;;;;;;;;;;8.76;75.55;98801.81;5112994;27;19924;-68
2023/05/03 00:53:03;;;;;;;;;;;;;;;8.69;75.48;98802.09;5101998;27;20005;-67
2023/05/03 00:55:52;;;;;;;;;;;;;;;8.67;75.61;98801.56;5078906;28;19951;-67
2023/05/03 00:58:42;;;;;;;;;;;;;;;8.60;75.99;98801.84;5111012;27;19966;-68
2023/05/03 01:01:31;;;;;;;;;;;;;;;8.58;75.85;98801.34;5087971;27;19923;-68
2023/05/03 01:04:20;;;;;;;;;;;;;;;8.49;76.10;98802.97;5111587;27;20493;-69
2023/05/03 01:07:11;;;;;;;;;;;;;;;8.50;76.38;98803.78;5098708;28;19926;-68
2023/05/03 01:10:00;;;;;;;;;;;;;;;8.52;76.18;98807.03;5120399;27;20412;-67
2023/05/03 01:12:53;;;;;;;;;;;;;;;8.58;76.13;98811.38;5093917;28;19935;-64
2023/05/03 01:15:48;;;;;;;;;;;;;;;8.52;75.76;98801.59;5103692;27;19943;-67
2023/05/03 01:18:38;;;;;;;;;;;;;;;8.56;75.84;98797.28;5109638;27;20033;-67
2023/05/03 01:21:26;;;;;;;;;;;;;;;8.52;75.60;98801.59;5108493;27;19921;-67
2023/05/03 01:24:17;;;;;;;;;;;;;;;8.27;76.37;98800.56;5080823;28;20032;-68
2023/05/03 01:27:08;;;;;;;;;;;;;;;8.11;76.93;98793.56;5079311;28;20019;-68
2023/05/03 01:29:56;;;;;;;;;;;;;;;8.04;77.45;98784.91;5089810;28;19920;-68
2023/05/03 01:32:49;;;;;;;;;;;;;;;8.04;77.45;98787.63;5056544;28;20011;-67
2023/05/03 01:35:40;;;;;;;;;;;;;;;7.99;77.26;98783.03;5085235;28;20045;-69
2023/05/03 01:38:29;;;;;;;;;;;;;;;7.95;77.17;98787.38;5081515;28;19965;-67
2023/05/03 01:41:17;;;;;;;;;;;;;;;7.93;77.34;98783.31;5078176;28;19920;-64
2023/05/03 01:44:07;;;;;;;;;;;;;;;7.81;77.53;98781.69;5066669;28;19920;-66
2023/05/03 01:46:56;;;;;;;;;;;;;;;7.72;77.74;98779.81;5074280;28;19920;-68
2023/05/03 01:49:46;;;;;;;;;;;;;;;7.72;77.92;98772.50;5054530;28;19924;-68
2023/05/03 01:52:35;;;;;;;;;;;;;;;7.75;77.45;98787.38;5071628;28;20281;-66
2023/05/03 01:55:26;;;;;;;;;;;;;;;7.68;77.60;98787.66;5094069;28;19986;-66
2023/05/03 01:58:14;;;;;;;;;;;;;;;7.70;77.28;98796.31;5079633;28;19931;-66
2023/05/03 02:01:05;;;;;;;;;;;;;;;7.72;77.27;98788.72;5088084;28;19920;-65
2023/05/03 02:03:54;;;;;;;;;;;;;;;7.69;77.44;98778.47;5079685;28;19920;-64
2023/05/03 02:06:42;;;;;;;;;;;;;;;7.78;76.82;98792.25;5060088;28;20019;-69
2023/05/03 02:09:30;;;;;;;;;;;;;;;7.67;76.95;98791.47;5088183;28;19927;-67
2023/05/03 02:12:18;;;;;;;;;;;;;;;7.70;76.61;98784.69;5087462;28;19920;-68
2023/05/03 02:15:07;;;;;;;;;;;;;;;7.76;76.51;98789.81;5109510;28;20357;-65
2023/05/03 02:17:57;;;;;;;;;;;;;;;7.53;77.12;98793.06;5082230;28;19921;-69
2023/05/03 02:20:47;;;;;;;;;;;;;;;7.47;77.08;98796.84;5116112;28;19927;-69
2023/05/03 02:23:36;;;;;;;;;;;;;;;7.43;77.15;98809.28;5088323;28;20379;-66
2023/05/03 02:26:24;;;;;;;;;;;;;;;7.35;77.00;98795.22;5099391;28;19938;-67
2023/05/03 02:29:12;;;;;;;;;;;;;;;7.31;77.09;98799.53;5098393;28;20057;-69
2023/05/03 02:32:04;;;;;;;;;;;;;;;7.31;77.40;98799.53;5097550;28;20495;-69
2023/05/03 02:34:53;;;;;;;;;;;;;;;7.33;77.11;98807.38;5099743;28;19965;-66
2023/05/03 02:37:43;;;;;;;;;;;;;;;7.44;76.65;98802.78;5088650;28;20014;-69
2023/05/03 02:40:32;;;;;;;;;;;;;;;7.41;76.69;98798.75;5112967;28;20385;-68
2023/05/03 02:43:21;;;;;;;;;;;;;;;7.34;76.51;98782.75;5101433;28;19924;-67
2023/05/03 02:46:09;;;;;;;;;;;;;;;7.50;75.63;98790.88;5098744;28;19924;-68
2023/05/03 02:48:57;;;;;;;;;;;;;;;7.49;75.69;98783.88;5093178;28;19919;-69
2023/05/03 02:51:47;;;;;;;;;;;;;;;7.48;75.41;98787.66;5087173;28;19920;-68
2023/05/03 02:54:36;;;;;;;;;;;;;;;7.42;75.64;98799.56;5096719;28;20010;-65
2023/05/03 02:57:29;;;;;;;;;;;;;;;7.30;75.99;98803.31;5090292;28;19920;-69
2023/05/03 03:00:18;;;;;;;;;;;;;;;7.25;76.33;98797.91;5105792;28;19920;-65
2023/05/03 03:03:06;;;;;;;;;;;;;;;7.30;76.28;98802.50;5094076;28;19927;-62
2023/05/03 03:05:54;;;;;;;;;;;;;;;7.25;76.18;98800.59;5098120;27;19936;-68
2023/05/03 03:08:45;;;;;;;;;;;;;;;7.28;76.14;98801.94;5113598;27;19996;-68
2023/05/03 03:11:33;;;;;;;;;;;;;;;7.27;76.16;98803.84;5104297;27;19920;-69
2023/05/03 03:14:21;;;;;;;;;;;;;;;7.21;76.47;98804.09;5092427;28;19935;-66
2023/05/03 03:17:09;;;;;;;;;;;;;;;7.29;76.00;98796.25;5109500;27;20313;-68
2023/05/03 03:19:58;;;;;;;;;;;;;;;7.34;75.66;98796.28;5104921;28;20105;-68
2023/05/03 03:22:46;;;;;;;;;;;;;;;7.35;75.48;98800.63;5107485;28;19923;-66
2023/05/03 03:25:36;;;;;;;;;;;;;;;7.31;75.50;98798.72;5120713;27;19920;-67
2023/05/03 03:28:24;;;;;;;;;;;;;;;7.25;75.89;98805.22;5106149;28;20305;-67
2023/05/03 03:31:13;;;;;;;;;;;;;;;7.14;75.75;98807.06;5092056;28;19927;-69
2023/05/03 03:34:03;;;;;;;;;;;;;;;7.07;75.89;98811.91;5104660;28;20006;-67
2023/05/03 03:36:52;;;;;;;;;;;;;;;7.07;76.22;98814.59;5091357;28;19931;-68
2023/05/03 03:39:41;;;;;;;;;;;;;;;7.14;75.98;98807.06;5128586;27;20373;-66
2023/05/03 03:42:32;;;;;;;;;;;;;;;7.01;75.85;98802.16;5119215;27;19932;-69
2023/05/03 03:45:20;;;;;;;;;;;;;;;6.92;76.44;98809.16;5091641;28;20308;-68
2023/05/03 03:48:09;;;;;;;;;;;;;;;6.94;76.06;98804.31;5106184;27;19928;-69
2023/05/03 03:50:58;;;;;;;;;;;;;;;6.89;76.10;98810.50;5088843;28;20003;-65
2023/05/03 03:53:53;;;;;;;;;;;;;;;6.78;76.37;98819.66;5092172;28;19930;-70
2023/05/03 03:56:44;;;;;;;;;;;;;;;6.55;77.21;98828.97;5090393;28;20006;-67
2023/05/03 03:59:34;;;;;;;;;;;;;;;6.48;77.57;98826.53;5096060;28;19930;-69
2023/05/03 04:02:23;;;;;;;;;;;;;;;6.43;77.78;98833.78;5099013;27;19920;-70
2023/05/03 04:05:11;;;;;;;;;;;;;;;6.43;78.09;98831.88;5097294;28;20280;-67
2023/05/03 04:07:59;;;;;;;;;;;;;;;6.43;78.35;98831.09;5090371;27;20383;-70
2023/05/03 04:10:50;;;;;;;;;;;;;;;6.53;78.32;98836.53;5112414;27;19924;-66
2023/05/03 04:13:42;;;;;;;;;;;;;;;6.60;77.65;98842.50;5086052;27;19931;-68
2023/05/03 04:16:32;;;;;;;;;;;;;;;6.63;77.47;98835.78;5110163;27;19998;-68
2023/05/03 04:19:24;;;;;;;;;;;;;;;6.64;77.38;98843.63;5084312;28;19939;-67
2023/05/03 04:22:12;;;;;;;;;;;;;;;6.70;77.08;98847.97;5092630;27;20545;-67
2023/05/03 04:25:00;;;;;;;;;;;;;;;6.63;76.96;98854.69;5050426;28;19979;-68
2023/05/03 04:27:50;;;;;;;;;;;;;;;6.59;77.26;98857.09;5083925;28;19966;-68
2023/05/03 04:30:40;;;;;;;;;;;;;;;6.57;77.26;98859.25;5055932;28;19925;-67
2023/05/03 04:33:30;;;;;;;;;;;;;;;6.61;77.06;98863.06;5046570;28;19927;-69
2023/05/03 04:36:24;;;;;;;;;;;;;;;6.70;76.75;98868.75;5075417;28;19936;-68
2023/05/03 04:39:14;;;;;;;;;;;;;;;6.77;76.47;98867.44;5074536;28;19925;-71
2023/05/03 04:42:05;;;;;;;;;;;;;;;6.85;76.01;98870.72;5077087;28;20282;-71
2023/05/03 04:44:54;;;;;;;;;;;;;;;6.79;75.92;98883.38;5075121;28;19920;-64
2023/05/03 04:47:43;;;;;;;;;;;;;;;6.78;75.93;98890.69;5074042;28;19929;-68
2023/05/03 04:50:32;;;;;;;;;;;;;;;6.73;76.11;98884.44;5053238;28;21629;-68
2023/05/03 04:53:21;;;;;;;;;;;;;;;6.78;76.32;98887.16;5088698;28;19929;-70
2023/05/03 04:56:19;;;;;;;;;;;;;;;6.97;75.58;98891.03;5055586;28;20401;-68
2023/05/03 04:59:07;;;;;;;;;;;;;;;6.94;75.12;98890.75;5054060;28;20391;-68
2023/05/03 05:01:56;;;;;;;;;;;;;;;7.00;74.93;98895.09;5069437;28;20491;-71
2023/05/03 05:04:45;;;;;;;;;;;;;;;6.96;75.42;98905.63;5087202;28;19924;-70
2023/05/03 05:07:38;;;;;;;;;;;;;;;6.95;75.10;98909.41;5095090;28;20285;-71
2023/05/03 05:10:29;;;;;;;;;;;;;;;7.03;74.86;98899.97;5062578;28;19921;-66
2023/05/03 05:13:18;;;;;;;;;;;;;;;6.98;74.60;98908.06;5074010;28;20580;-72
2023/05/03 05:16:06;;;;;;;;;;;;;;;6.98;74.98;98910.78;5074980;28;19933;-63
2023/05/03 05:18:55;;;;;;;;;;;;;;;6.99;75.04;98907.81;5086978;28;19931;-65
2023/05/03 05:21:46;;;;;;;;;;;;;;;7.03;74.70;98910.78;5070487;28;20450;-66
2023/05/03 05:24:37;;;;;;;;;;;;;;;7.22;73.88;98908.44;5107308;27;19932;-66
2023/05/03 05:27:26;;;;;;;;;;;;;;;7.11;73.96;98906.75;5063271;28;20255;-64
2023/05/03 05:30:19;;;;;;;;;;;;;;;7.13;73.72;98910.81;5077128;28;20400;-64
2023/05/03 05:33:10;;;;;;;;;;;;;;;7.18;73.56;98912.72;5084734;28;19927;-66
2023/05/03 05:35:59;;;;;;;;;;;;;;;7.24;73.25;98912.47;5090736;28;19921;-66
2023/05/03 05:38:48;;;;;;;;;;;;;;;7.32;73.65;98917.38;5054652;28;20483;-66
2023/05/03 05:41:38;;;;;;;;;;;;;;;7.57;72.63;98924.78;5079206;28;19935;-63
2023/05/03 05:44:26;;;;;;;;;;;;;;;7.59;72.36;98919.91;5065625;28;19924;-65
2023/05/03 05:47:14;;;;;;;;;;;;;;;7.66;72.11;98919.63;5067732;28;19931;-66
2023/05/03 05:50:05;;;;;;;;;;;;;;;7.64;71.77;98918.28;5054204;28;20722;-66
2023/05/03 05:53:04;;;;;;;;;;;;;;;7.58;71.85;98917.47;5063315;28;19920;-65
2023/05/03 05:55:57;;;;;;;;;;;;;;;7.74;71.40;98921.00;5077550;28;20020;-65
2023/05/03 05:58:48;;;;;;;;;;;;;;;7.85;70.85;98922.66;5051878;28;19993;-65
2023/05/03 06:01:40;;;;;;;;;;;;;;;8.07;70.61;98930.50;5081970;28;19967;-66
2023/05/03 06:04:29;;;;;;;;;;;;;;;8.09;69.79;98931.84;5080503;28;19927;-67
2023/05/03 06:07:18;;;;;;;;;;;;;;;8.26;69.65;98928.91;5103936;27;19924;-64
2023/05/03 06:10:10;;;;;;;;;;;;;;;8.17;69.50;98911.56;5096070;28;20052;-62
2023/05/03 06:13:00;;;;;;;;;;;;;;;8.38;69.48;98921.34;5057852;28;20349;-65
2023/05/03 06:15:52;;;;;;;;;;;;;;;8.49;69.04;98915.91;5057745;28;19943;-64
2023/05/03 06:18:41;;;;;;;;;;;;;;;8.64;68.90;98921.31;5052875;28;19927;-65
2023/05/03 06:21:29;;;;;;;;;;;;;;;8.68;67.72;98925.06;5046278;28;20021;-65
2023/05/03 06:24:20;;;;;;;;;;;;;;;8.72;67.22;98928.88;5048543;28;19974;-66
2023/05/03 06:27:11;;;;;;;;;;;;;;;8.85;66.75;98931.03;5045320;28;19931;-65
2023/05/03 06:29:59;;;;;;;;;;;;;;;9.06;66.70;98936.41;5048499;28;19920;-64
2023/05/03 06:32:50;;;;;;;;;;;;;;;9.29;64.60;98927.63;5079473;28;19942;-66
2023/05/03 06:35:40;;;;;;;;;;;;;;;9.39;64.76;98935.72;5050556;28;19983;-65
2023/05/03 06:41:46;;;;;;;;;;;;;;;9.40;62.95;98926.47;5049546;28;20036;-67
2023/05/03 06:45:05;;;;;;;;;;;;;;;9.56;62.82;98931.84;5043794;28;19925;-63
2023/05/03 06:48:39;;;;;;;;;;;;;;;9.77;62.77;98936.03;5062779;28;19943;-65
2023/05/03 06:52:02;;;;;;;;;;;;;;;9.72;62.28;98938.78;5047019;28;19940;-64
2023/05/03 06:54:51;;;;;;;;;;;;;;;9.88;62.14;98925.94;5041961;28;19920;-66
2023/05/03 06:57:41;;;;;;;;;;;;;;;9.90;61.96;98923.75;5042984;28;19925;-65
2023/05/03 07:00:31;;;;;;;;;;;;;;;9.96;61.96;98928.88;5059611;28;19982;-66
2023/05/03 07:03:19;;;;;;;;;;;;;;;10.19;61.73;98926.53;5049217;28;19951;-64
2023/05/03 07:06:09;;;;;;;;;;;;;;;10.23;61.05;98916.72;5048504;28;20015;-65
2023/05/03 07:08:57;;;;;;;;;;;;;;;10.18;61.21;98914.06;5059588;28;19978;-65
2023/05/03 07:11:49;;;;;;;;;;;;;;;10.17;61.49;98909.69;5078128;28;20366;-67
2023/05/03 07:14:37;;;;;;;;;;;;;;;10.27;60.86;98906.94;5064474;28;20015;-64
2023/05/03 07:17:26;;;;;;;;;;;;;;;10.43;60.87;98913.84;5064602;28;20263;-63
2023/05/03 07:20:14;;;;;;;;;;;;;;;10.55;60.57;98907.25;5099064;28;19989;-65
2023/05/03 07:23:05;;;;;;;;;;;;;;;10.81;59.68;98908.56;5085270;28;20487;-64
2023/05/03 07:25:54;;;;;;;;;;;;;;;10.88;59.41;98892.75;5085676;28;20047;-66
2023/05/03 07:28:42;;;;;;;;;;;;;;;11.08;59.12;98896.31;5087892;28;19920;-64
2023/05/03 07:31:30;;;;;;;;;;;;;;;11.12;58.90;98897.34;5085079;28;20619;-66
2023/05/03 07:34:18;;;;;;;;;;;;;;;11.47;58.86;98898.81;5085771;28;19920;-67
2023/05/03 07:37:09;;;;;;;;;;;;;;;11.46;57.26;98886.34;5077915;28;19971;-65
2023/05/03 07:39:58;;;;;;;;;;;;;;;11.72;56.66;98886.78;5084562;28;19923;-65
2023/05/03 07:42:47;;;;;;;;;;;;;;;12.10;56.42;98882.13;5083977;28;19924;-64
2023/05/03 07:45:35;;;;;;;;;;;;;;;12.28;54.96;98878.53;5084565;28;20284;-64
2023/05/03 07:48:23;;;;;;;;;;;;;;;12.27;54.86;98881.56;5080344;28;19924;-65
2023/05/03 07:51:11;;;;;;;;;;;;;;;12.35;54.70;98877.34;5080751;28;20541;-67
2023/05/03 07:54:01;;;;;;;;;;;;;;;12.36;55.21;98866.16;5082811;28;19920;-63
2023/05/03 07:56:51;;;;;;;;;;;;;;;12.52;54.50;98866.69;5080751;28;19920;-66
2023/05/03 07:59:42;;;;;;;;;;;;;;;12.62;53.89;98871.13;5075640;28;19920;-66
2023/05/03 08:02:30;;;;;;;;;;;;;;;12.53;54.30;98863.66;5074727;28;19920;-65
2023/05/03 08:05:19;;;;;;;;;;;;;;;12.67;54.30;98857.41;5075208;28;20381;-66
2023/05/03 08:08:07;;;;;;;;;;;;;;;12.62;53.93;98858.31;5078790;28;19927;-65
2023/05/03 08:10:58;;;;;;;;;;;;;;;12.74;54.39;98866.03;5081944;28;20704;-66
2023/05/03 08:13:48;;;;;;;;;;;;;;;12.87;54.25;98867.94;5083906;28;19927;-65
2023/05/03 08:16:36;;;;;;;;;;;;;;;12.98;53.52;98863.88;5082827;28;20373;-65
2023/05/03 08:19:24;;;;;;;;;;;;;;;12.98;52.46;98858.44;5082616;28;19928;-66
2023/05/03 08:22:13;;;;;;;;;;;;;;;13.09;52.78;98857.09;5083652;28;20261;-67
2023/05/03 08:25:03;;;;;;;;;;;;;;;13.21;52.76;98856.66;5083030;28;20375;-65
2023/05/03 08:27:51;;;;;;;;;;;;;;;13.42;51.39;98851.53;5068643;28;19964;-62
2023/05/03 08:30:41;;;;;;;;;;;;;;;13.28;51.15;98856.22;5085729;28;19954;-65
2023/05/03 08:33:29;;;;;;;;;;;;;;;13.30;51.96;98853.97;5082664;28;20390;-66
2023/05/03 08:36:17;;;;;;;;;;;;;;;13.45;52.11;98853.66;5083740;28;20301;-66
2023/05/03 08:39:06;;;;;;;;;;;;;;;13.66;51.66;98850.47;5077441;28;19930;-67
2023/05/03 08:41:54;;;;;;;;;;;;;;;13.98;50.95;98855.69;5083943;28;20006;-64
2023/05/03 08:44:44;;;;;;;;;;;;;;;13.98;50.33;98852.16;5081370;28;20371;-66
2023/05/03 08:47:37;;;;;;;;;;;;;;;14.17;50.77;98852.78;5082134;28;20053;-66
2023/05/03 08:50:25;;;;;;;;;;;;;;;14.23;50.42;98853.47;5073722;28;19982;-70
2023/05/03 08:53:13;;;;;;;;;;;;;;;14.28;49.74;98851.41;5062566;28;20430;-66
2023/05/03 08:56:05;;;;;;;;;;;;;;;14.54;49.14;98853.50;5086525;28;19955;-67
2023/05/03 08:58:53;;;;;;;;;;;;;;;14.47;48.03;98858.56;5086090;28;19935;-67
2023/05/03 09:01:42;;;;;;;;;;;;;;;14.51;47.93;98856.88;5071789;28;20495;-67
2023/05/03 09:04:35;;;;;;;;;;;;;;;14.55;47.96;98855.94;5076440;28;20047;-66
2023/05/03 09:07:23;;;;;;;;;;;;;;;14.68;48.02;98854.22;5077923;28;19941;-63
2023/05/03 09:10:20;;;;;;;;;;;;;;;14.77;47.28;98859.72;5083664;28;20712;-65
2023/05/03 09:13:10;;;;;;;;;;;;;;;14.93;47.29;98853.50;5082367;28;19969;-66
2023/05/03 09:15:58;;;;;;;;;;;;;;;15.06;47.89;98859.16;5083354;28;20020;-66
2023/05/03 09:18:55;;;;;;;;;;;;;;;14.83;48.51;98855.72;5066018;28;20647;-66
2023/05/03 09:21:46;;;;;;;;;;;;;;;14.64;48.08;98862.22;5067077;28;19920;-65
2023/05/03 09:24:36;;;;;;;;;;;;;;;14.45;49.07;98860.84;5069018;28;20413;-64
2023/05/03 09:27:24;;;;;;;;;;;;;;;14.64;48.39;98859.50;5082609;28;20504;-63
2023/05/03 09:30:19;;;;;;;;;;;;;;;14.98;47.26;98858.03;5073688;28;20057;-64
2023/05/03 09:33:07;;;;;;;;;;;;;;;15.26;46.14;98858.59;5060354;28;19946;-63
2023/05/03 09:35:56;;;;;;;;;;;;;;;15.19;46.08;98850.84;5048331;28;19942;-66
2023/05/03 09:38:45;;;;;;;;;;;;;;;15.31;46.88;98852.16;5069840;28;19942;-65
2023/05/03 09:41:34;;;;;;;;;;;;;;;15.41;47.13;98843.66;5063598;28;20015;-68
2023/05/03 09:44:26;;;;;;;;;;;;;;;15.62;47.22;98852.03;5069829;28;20291;-76
2023/05/03 09:47:15;;;;;;;;;;;;;;;15.82;46.32;98845.13;5052628;28;19935;-65
2023/05/03 09:50:04;;;;;;;;;;;;;;;15.94;45.86;98842.56;5059696;28;19931;-65
2023/05/03 09:52:52;;;;;;;;;;;;;;;16.09;44.81;98844.00;5050613;28;19924;-66
2023/05/03 09:55:42;;;;;;;;;;;;;;;15.78;44.84;98847.72;5072627;28;20373;-69
2023/05/03 09:58:30;;;;;;;;;;;;;;;15.23;45.81;98844.72;5063782;28;19957;-66
2023/05/03 10:01:19;;;;;;;;;;;;;;;14.70;47.06;98841.03;5063203;28;19934;-66
2023/05/03 10:04:08;;;;;;;;;;;;;;;14.41;48.42;98838.75;5067997;28;19946;-66
2023/05/03 10:07:00;;;;;;;;;;;;;;;14.78;47.44;98843.00;5078338;28;19938;-68
2023/05/03 10:09:48;;;;;;;;;;;;;;;15.27;46.05;98845.69;5074417;28;19942;-69
2023/05/03 10:12:38;;;;;;;;;;;;;;;15.45;45.47;98842.69;5071416;28;20004;-67
2023/05/03 10:15:27;;;;;;;;;;;;;;;15.64;44.99;98836.91;5074451;28;19950;-67
2023/05/03 10:18:15;;;;;;;;;;;;;;;15.96;44.31;98826.59;5081581;28;20009;-67
2023/05/03 10:21:04;;;;;;;;;;;;;;;16.29;44.27;98835.06;5087027;28;20053;-65
2023/05/03 10:24:11;;;;;;;;;;;;;;;16.26;43.80;98816.53;5078596;28;19920;-67
2023/05/03 10:27:00;;;;;;;;;;;;;;;15.95;45.04;98805.81;5089622;28;19924;-67
2023/05/03 10:29:50;;;;;;;;;;;;;;;15.94;44.65;98815.16;5074785;28;20066;-67
2023/05/03 10:32:41;;;;;;;;;;;;;;;15.98;44.46;98803.22;5076141;28;19921;-67
2023/05/03 10:35:30;;;;;;;;;;;;;;;15.90;44.79;98800.47;5078429;28;19931;-66
2023/05/03 10:38:20;;;;;;;;;;;;;;;16.03;44.46;98807.69;5083085;28;20387;-67
2023/05/03 10:41:09;;;;;;;;;;;;;;;16.19;43.29;98808.81;5086755;28;19925;-67
2023/05/03 10:43:58;;;;;;;;;;;;;;;16.18;43.31;98809.13;5072782;28;19927;-67
2023/05/03 10:46:47;;;;;;;;;;;;;;;16.05;43.49;98801.91;5077016;28;20187;-65
2023/05/03 10:49:38;;;;;;;;;;;;;;;16.07;43.67;98805.13;5102269;28;20035;-66
2023/05/03 10:52:44;;;;;;;;;;;;;;;15.88;43.76;98800.00;5106785;28;20659;-66
2023/05/03 10:55:33;;;;;;;;;;;;;;;15.50;44.30;98805.28;5105884;28;19950;-66
2023/05/03 10:58:25;;;;;;;;;;;;;;;15.60;45.54;98800.31;5105999;28;20115;-67
2023/05/03 11:01:14;;;;;;;;;;;;;;;16.07;44.83;98800.44;5107242;28;19924;-66
2023/05/03 11:04:05;;;;;;;;;;;;;;;16.47;43.38;98794.69;5106777;28;19954;-67
2023/05/03 11:06:55;;;;;;;;;;;;;;;16.77;42.86;98796.34;5099987;28;19935;-68
2023/05/03 11:09:44;;;;;;;;;;;;;;;17.03;42.05;98792.66;5105703;28;19919;-67
2023/05/03 11:12:34;;;;;;;;;;;;;;;16.74;41.48;98791.53;5101734;28;20383;-67
2023/05/03 11:15:22;;;;;;;;;;;;;;;16.08;42.84;98793.81;5106757;27;20591;-66
2023/05/03 11:18:11;;;;;;;;;;;;;;;15.65;44.06;98788.41;5100289;28;20035;-66
2023/05/03 11:21:00;;;;;;;;;;;;;;;15.66;43.50;98787.31;5077797;28;19920;-65
2023/05/03 11:23:49;;;;;;;;;;;;;;;15.98;42.90;98788.72;5086713;28;19924;-65
2023/05/03 11:26:37;;;;;;;;;;;;;;;16.22;42.10;98791.72;5084608;28;20519;-65
2023/05/03 11:29:26;;;;;;;;;;;;;;;16.08;41.90;98785.59;5083562;28;20303;-67
2023/05/03 11:32:14;;;;;;;;;;;;;;;16.01;42.07;98782.56;5077446;28;19939;-68
2023/05/03 11:35:04;;;;;;;;;;;;;;;16.21;41.73;98784.63;5079618;28;19930;-66
2023/05/03 11:37:54;;;;;;;;;;;;;;;16.54;39.93;98775.78;5086088;28;19939;-70
2023/05/03 11:40:42;;;;;;;;;;;;;;;16.76;39.43;98772.81;5065074;28;20035;-65
2023/05/03 11:43:30;;;;;;;;;;;;;;;16.87;39.32;98773.22;5076034;28;19959;-68
2023/05/03 11:46:20;;;;;;;;;;;;;;;16.87;39.37;98767.75;5064783;28;20352;-67
2023/05/03 11:49:16;;;;;;;;;;;;;;;17.01;40.48;98773.00;5075048;28;19939;-67
2023/05/03 11:52:05;;;;;;;;;;;;;;;16.97;40.55;98772.03;5081435;28;20027;-68
2023/05/03 11:54:55;;;;;;;;;;;;;;;17.32;39.78;98774.56;5085377;28;20073;-66
2023/05/03 11:57:44;;;;;;;;;;;;;;;17.36;39.89;98780.97;5076503;28;20060;-70
2023/05/03 12:00:32;;;;;;;;;;;;;;;17.32;39.75;98769.06;5084329;28;19938;-66
2023/05/03 12:03:21;;;;;;;;;;;;;;;17.23;39.29;98769.94;5077460;28;20064;-68
2023/05/03 12:06:12;;;;;;;;;;;;;;;17.37;39.49;98771.63;5086177;28;19950;-68
2023/05/03 12:09:02;;;;;;;;;;;;;;;16.98;39.92;98773.66;5077685;28;19942;-66
2023/05/03 12:11:52;;;;;;;;;;;;;;;17.10;39.93;98765.50;5074518;28;20037;-66
2023/05/03 12:14:54;;;;;;;;;;;;;;;16.96;39.92;98759.47;5082914;28;19966;-64
2023/05/03 12:17:46;;;;;;;;;;;;;;;16.82;40.88;98765.19;5073148;28;19941;-66
2023/05/03 12:20:37;;;;;;;;;;;;;;;16.93;41.01;98765.59;5081529;28;19943;-66
2023/05/03 12:23:28;;;;;;;;;;;;;;;16.75;41.06;98760.22;5061518;28;19934;-67
2023/05/03 12:26:17;;;;;;;;;;;;;;;16.34;41.75;98749.09;5068440;28;20023;-65
2023/05/03 12:29:07;;;;;;;;;;;;;;;16.26;41.76;98749.94;5076105;28;19939;-67
2023/05/03 12:32:01;;;;;;;;;;;;;;;16.43;41.74;98756.16;5069020;28;19965;-67
2023/05/03 12:34:50;;;;;;;;;;;;;;;16.62;41.47;98753.00;5083129;28;20342;-68
2023/05/03 12:37:39;;;;;;;;;;;;;;;16.61;40.66;98751.38;5072678;28;19939;-67
2023/05/03 12:40:30;;;;;;;;;;;;;;;16.68;39.63;98745.41;5083133;28;19931;-66
2023/05/03 12:43:21;;;;;;;;;;;;;;;16.63;39.88;98749.13;5083582;28;19958;-67
2023/05/03 12:46:11;;;;;;;;;;;;;;;16.73;39.31;98743.28;5081650;28;19947;-68
2023/05/03 12:49:19;;;;;;;;;;;;;;;16.68;38.58;98737.16;5079707;28;20299;-66
2023/05/03 12:52:10;;;;;;;;;;;;;;;16.79;39.17;98732.13;5075496;28;19945;-69
2023/05/03 12:55:18;;;;;;;;;;;;;;;16.92;38.97;98726.38;5081226;28;19920;-66
2023/05/03 12:58:11;;;;;;;;;;;;;;;16.96;39.93;98726.53;5080379;28;19965;-66
2023/05/03 13:01:21;;;;;;;;;;;;;;;17.03;39.30;98729.53;5069143;28;19943;-66
2023/05/03 13:04:30;;;;;;;;;;;;;;;16.90;39.63;98728.66;5074730;28;20459;-66
2023/05/03 13:07:23;;;;;;;;;;;;;;;16.90;40.15;98727.84;5056764;28;19935;-67
2023/05/03 13:10:18;;;;;;;;;;;;;;;16.87;38.89;98712.03;5096644;28;19939;-65
2023/05/03 13:13:11;;;;;;;;;;;;;;;16.91;38.85;98716.53;5073569;28;19935;-68
2023/05/03 13:15:59;;;;;;;;;;;;;;;17.07;39.33;98714.00;5071851;28;19959;-67
2023/05/03 13:18:53;;;;;;;;;;;;;;;17.22;38.41;98710.66;5046608;28;19925;-65
2023/05/03 13:21:41;;;;;;;;;;;;;;;17.15;38.41;98707.66;5055295;28;20292;-66
2023/05/03 13:24:30;;;;;;;;;;;;;;;17.21;38.07;98700.81;5064161;28;20000;-67
2023/05/03 13:27:18;;;;;;;;;;;;;;;17.33;38.32;98696.53;5056811;28;19959;-67
2023/05/03 13:30:07;;;;;;;;;;;;;;;17.54;39.21;98691.81;5072066;28;19958;-63
2023/05/03 13:32:55;;;;;;;;;;;;;;;17.54;38.76;98683.56;5044307;28;19959;-67
2023/05/03 13:35:45;;;;;;;;;;;;;;;17.44;37.55;98681.22;5066040;28;20422;-65
2023/05/03 13:38:36;;;;;;;;;;;;;;;17.28;37.79;98679.09;5064830;28;19925;-67
2023/05/03 13:41:25;;;;;;;;;;;;;;;17.35;38.23;98681.31;5061082;28;19928;-67
2023/05/03 13:44:13;;;;;;;;;;;;;;;17.21;37.87;98676.09;5061235;28;19920;-67
2023/05/03 13:47:01;;;;;;;;;;;;;;;17.14;37.15;98664.84;5052351;28;20431;-66
2023/05/03 13:49:49;;;;;;;;;;;;;;;17.18;37.32;98671.28;5065603;28;19946;-66
2023/05/03 13:52:41;;;;;;;;;;;;;;;17.15;37.23;98663.72;5069892;28;20646;-64
2023/05/03 13:55:29;;;;;;;;;;;;;;;17.38;37.29;98657.88;5065270;28;19932;-71
2023/05/03 13:58:17;;;;;;;;;;;;;;;17.47;37.41;98664.06;5064837;28;19972;-65
2023/05/03 14:01:06;;;;;;;;;;;;;;;17.44;36.25;98660.06;5069062;28;19951;-68
2023/05/03 14:03:54;;;;;;;;;;;;;;;17.36;36.66;98649.94;5066434;28;19936;-69
2023/05/03 14:06:43;;;;;;;;;;;;;;;17.45;37.63;98658.13;5049826;28;19920;-68
2023/05/03 14:09:38;;;;;;;;;;;;;;;17.50;36.73;98658.69;5061127;28;19939;-67
2023/05/03 14:12:26;;;;;;;;;;;;;;;17.28;36.12;98659.88;5057966;28;20264;-67
2023/05/03 14:15:14;;;;;;;;;;;;;;;17.22;35.94;98658.50;5063794;28;19924;-65
2023/05/03 14:18:03;;;;;;;;;;;;;;;17.14;36.83;98653.88;5050494;28;19951;-68
2023/05/03 14:20:52;;;;;;;;;;;;;;;17.20;36.25;98660.75;5102888;28;19961;-66
2023/05/03 14:23:41;;;;;;;;;;;;;;;17.20;36.41;98655.25;5105532;27;20555;-67
2023/05/03 14:26:32;;;;;;;;;;;;;;;17.19;36.27;98653.66;5104400;28;19995;-66
2023/05/03 14:29:21;;;;;;;;;;;;;;;17.12;36.83;98650.66;5103410;28;20002;-67
2023/05/03 14:32:09;;;;;;;;;;;;;;;17.23;36.24;98646.38;5104079;28;20021;-66
2023/05/03 14:34:58;;;;;;;;;;;;;;;17.34;35.83;98654.19;5104472;28;20016;-67
2023/05/03 14:37:46;;;;;;;;;;;;;;;17.47;35.63;98655.81;5103352;28;19931;-67
2023/05/03 14:40:34;;;;;;;;;;;;;;;17.40;35.80;98648.13;5098952;28;19930;-65
2023/05/03 14:43:26;;;;;;;;;;;;;;;17.54;35.92;98647.84;5110508;28;19973;-66
2023/05/03 14:46:15;;;;;;;;;;;;;;;17.64;34.69;98644.66;5097789;28;19952;-67
2023/05/03 14:49:05;;;;;;;;;;;;;;;17.69;34.48;98647.19;5091748;28;19952;-66
2023/05/03 14:51:54;;;;;;;;;;;;;;;17.57;34.43;98633.41;5100390;28;19949;-66
2023/05/03 14:54:42;;;;;;;;;;;;;;;17.55;34.04;98632.97;5106009;28;19981;-65